Time;durP1;ratioP1;P1;durP2;ratioP2;P2;SDS_P1;SDS_P2;PMS_P1;PMS_P2;Temp;Humidity;BMP_temperature;BMP_pressure;BME280_temperature;BME280_humidity;BME280_pressure;Samples;Min_cycle;Max_cycle;Signal;HPM_P1;HPM_P2
2022/03/24 00:00:54;;;;;;;11.18;7.40;;;10.40;96.70;;;;;;5002399;28;20052;-77
2022/03/24 00:03:24;;;;;;;11.15;7.40;;;10.30;96.70;;;;;;4984701;28;20153;-76
2022/03/24 00:05:54;;;;;;;10.60;8.00;;;10.20;96.70;;;;;;4984997;28;20042;-76
2022/03/24 00:08:22;;;;;;;9.80;7.25;;;10.10;96.70;;;;;;4998224;28;20109;-77
2022/03/24 00:10:50;;;;;;;12.38;7.80;;;10.20;96.70;;;;;;4990989;28;20042;-77
2022/03/24 00:13:19;;;;;;;12.85;7.18;;;10.20;96.70;;;;;;4998528;28;20784;-76
2022/03/24 00:15:47;;;;;;;8.98;7.00;;;10.20;96.70;;;;;;4981418;28;20073;-77
2022/03/24 00:18:16;;;;;;;10.05;7.15;;;10.20;96.70;;;;;;4997717;28;20142;-77
2022/03/24 00:20:45;;;;;;;10.43;6.68;;;10.20;96.70;;;;;;4988270;28;20233;-80
2022/03/24 00:23:14;;;;;;;9.52;6.85;;;10.10;96.70;;;;;;5004579;28;20046;-80
2022/03/24 00:25:42;;;;;;;10.73;6.82;;;10.00;96.70;;;;;;5011306;28;20054;-80
2022/03/24 00:28:10;;;;;;;10.75;7.65;;;10.10;96.70;;;;;;4987863;28;20050;-80
2022/03/24 00:30:38;;;;;;;10.07;7.55;;;10.20;96.20;;;;;;4990342;28;20050;-80
2022/03/24 00:33:07;;;;;;;12.27;8.10;;;10.10;96.30;;;;;;4969378;28;20046;-80
2022/03/24 00:35:35;;;;;;;12.55;8.23;;;10.10;96.30;;;;;;5001860;28;20129;-79
2022/03/24 00:38:08;;;;;;;11.80;7.93;;;10.10;96.50;;;;;;4981925;28;20083;-80
2022/03/24 00:40:36;;;;;;;13.45;8.95;;;10.20;96.30;;;;;;4962462;28;20090;-80
2022/03/24 00:43:05;;;;;;;11.65;8.73;;;10.20;96.10;;;;;;4996286;28;20053;-80
2022/03/24 00:45:32;;;;;;;10.40;7.78;;;10.20;96.30;;;;;;4982470;28;20074;-80
2022/03/24 00:48:01;;;;;;;12.02;9.05;;;10.00;96.10;;;;;;4982258;28;20493;-80
2022/03/24 00:50:29;;;;;;;11.73;8.70;;;10.00;95.90;;;;;;4997450;28;20472;-80
2022/03/24 00:52:57;;;;;;;12.55;8.55;;;10.00;96.20;;;;;;4964589;28;20054;-80
2022/03/24 00:55:27;;;;;;;11.93;8.70;;;10.00;96.40;;;;;;4972216;28;20051;-80
2022/03/24 00:57:55;;;;;;;15.70;8.52;;;9.90;96.30;;;;;;4997694;28;20047;-79
2022/03/24 01:00:28;;;;;;;11.68;8.02;;;9.80;96.30;;;;;;4982547;28;20097;-79
2022/03/24 01:02:57;;;;;;;11.73;8.27;;;9.90;96.50;;;;;;4967524;28;20042;-79
2022/03/24 01:05:28;;;;;;;11.52;7.95;;;9.90;95.90;;;;;;4976601;28;20046;-80
2022/03/24 01:07:57;;;;;;;10.93;7.43;;;9.80;96.20;;;;;;4970098;28;20416;-80
2022/03/24 01:10:26;;;;;;;10.20;7.15;;;9.80;96.70;;;;;;4982227;28;20050;-80
2022/03/24 01:12:59;;;;;;;11.25;7.25;;;9.60;96.70;;;;;;5003035;28;20046;-80
2022/03/24 01:15:30;;;;;;;8.85;6.65;;;9.60;96.70;;;;;;4985836;28;20101;-80
2022/03/24 01:18:00;;;;;;;11.15;7.07;;;9.60;96.70;;;;;;4973851;28;20042;-80
2022/03/24 01:20:30;;;;;;;9.65;6.88;;;9.50;96.60;;;;;;4985348;28;20141;-81
2022/03/24 01:22:59;;;;;;;9.35;6.78;;;9.50;96.60;;;;;;4971636;28;20055;-80
2022/03/24 01:25:29;;;;;;;11.05;6.85;;;9.30;96.70;;;;;;5002020;28;20043;-79
2022/03/24 01:27:57;;;;;;;8.98;6.90;;;9.30;96.70;;;;;;4972213;28;20047;-80
2022/03/24 01:30:25;;;;;;;9.55;6.75;;;9.30;96.50;;;;;;5001647;28;20057;-80
2022/03/24 01:32:53;;;;;;;8.45;6.40;;;9.30;96.60;;;;;;4984461;28;20053;-80
2022/03/24 01:35:21;;;;;;;10.10;6.30;;;9.30;96.70;;;;;;4986106;28;20397;-80
2022/03/24 01:37:49;;;;;;;9.57;6.75;;;9.30;96.70;;;;;;5002479;28;20055;-80
2022/03/24 01:40:17;;;;;;;9.20;6.75;;;9.40;96.70;;;;;;4974081;28;20125;-80
2022/03/24 01:42:48;;;;;;;10.75;6.22;;;9.40;96.70;;;;;;4989429;28;20548;-80
2022/03/24 01:45:16;;;;;;;9.45;6.97;;;9.30;96.50;;;;;;4985535;28;20058;-80
2022/03/24 01:47:44;;;;;;;8.48;6.72;;;9.30;96.40;;;;;;5002894;28;20047;-80
2022/03/24 01:50:16;;;;;;;10.85;6.32;;;9.10;96.70;;;;;;5005385;28;20051;-79
2022/03/24 01:52:45;;;;;;;11.07;6.63;;;8.90;96.70;;;;;;4973230;28;20412;-79
2022/03/24 01:55:13;;;;;;;9.90;6.82;;;8.80;96.70;;;;;;4987289;28;20039;-79
2022/03/24 01:57:44;;;;;;;10.75;6.47;;;8.80;96.70;;;;;;4992284;28;20043;-80
2022/03/24 02:00:15;;;;;;;8.88;6.30;;;8.90;96.70;;;;;;5007582;28;20150;-79
2022/03/24 02:02:44;;;;;;;8.55;6.38;;;8.80;96.70;;;;;;4971440;28;20057;-80
2022/03/24 02:05:12;;;;;;;9.43;7.05;;;8.90;96.70;;;;;;4988293;28;20039;-80
2022/03/24 02:07:42;;;;;;;10.48;6.18;;;8.90;96.70;;;;;;4969473;28;20461;-80
2022/03/24 02:10:11;;;;;;;9.77;6.18;;;8.90;96.70;;;;;;4973632;28;20053;-80
2022/03/24 02:12:42;;;;;;;9.25;6.90;;;8.90;96.70;;;;;;4964116;28;20520;-81
2022/03/24 02:15:11;;;;;;;8.48;6.80;;;8.90;96.70;;;;;;5001987;28;20386;-79
2022/03/24 02:17:41;;;;;;;10.40;7.53;;;8.90;96.70;;;;;;4968871;28;20070;-80
2022/03/24 02:20:10;;;;;;;10.75;6.53;;;8.90;96.70;;;;;;5000491;28;20125;-80
2022/03/24 02:22:40;;;;;;;9.20;6.53;;;8.80;96.70;;;;;;4967835;28;20153;-80
2022/03/24 02:25:09;;;;;;;10.52;6.93;;;8.80;96.70;;;;;;4968925;28;20047;-80
2022/03/24 02:27:39;;;;;;;8.88;7.35;;;8.80;96.70;;;;;;5000665;28;20053;-79
2022/03/24 02:30:09;;;;;;;12.65;7.57;;;8.70;96.70;;;;;;4974795;28;20513;-80
2022/03/24 02:32:37;;;;;;;9.95;7.68;;;8.70;96.70;;;;;;5003009;28;20063;-79
2022/03/24 02:35:06;;;;;;;16.60;7.90;;;8.70;96.70;;;;;;4972150;28;20058;-80
2022/03/24 02:37:35;;;;;;;15.27;8.07;;;8.70;96.70;;;;;;5001344;28;20567;-79
2022/03/24 02:40:06;;;;;;;9.65;7.22;;;8.70;96.70;;;;;;4970432;28;20051;-80
2022/03/24 02:42:34;;;;;;;9.75;7.03;;;8.70;96.70;;;;;;4983707;28;20058;-79
2022/03/24 02:45:06;;;;;;;11.13;7.85;;;8.60;96.70;;;;;;5000421;28;20051;-80
2022/03/24 02:47:34;;;;;;;11.63;7.57;;;8.50;96.70;;;;;;4984185;28;20051;-80
2022/03/24 02:50:04;;;;;;;10.50;7.13;;;8.50;96.70;;;;;;4969229;28;20051;-79
2022/03/24 02:52:33;;;;;;;10.45;7.80;;;8.40;96.70;;;;;;4974129;28;20042;-80
2022/03/24 02:55:02;;;;;;;10.48;7.45;;;8.30;96.70;;;;;;4969056;28;20043;-79
2022/03/24 02:57:31;;;;;;;10.80;7.38;;;8.30;96.70;;;;;;4968353;28;20544;-79
2022/03/24 03:00:00;;;;;;;12.13;7.10;;;8.30;96.70;;;;;;5003174;28;20050;-80
2022/03/24 03:02:28;;;;;;;9.90;6.75;;;8.40;96.70;;;;;;5003880;28;20051;-80
2022/03/24 03:04:57;;;;;;;10.15;7.35;;;8.40;96.70;;;;;;4969007;28;20039;-79
2022/03/24 03:07:28;;;;;;;10.35;7.22;;;8.40;96.70;;;;;;4973350;28;20488;-80
2022/03/24 03:09:56;;;;;;;12.57;7.70;;;8.40;96.70;;;;;;4986306;28;20050;-79
2022/03/24 03:12:27;;;;;;;13.48;7.38;;;8.40;96.70;;;;;;4990585;28;20307;-80
2022/03/24 03:14:57;;;;;;;11.25;7.63;;;8.30;96.70;;;;;;4969132;28;20055;-79
2022/03/24 03:17:28;;;;;;;13.07;7.30;;;8.20;96.70;;;;;;5017722;28;20051;-80
2022/03/24 03:19:56;;;;;;;10.30;6.65;;;8.20;96.70;;;;;;4999511;28;20081;-78
2022/03/24 03:22:26;;;;;;;8.85;6.78;;;8.10;96.70;;;;;;4976411;28;20177;-79
2022/03/24 03:24:55;;;;;;;11.13;6.82;;;8.10;96.70;;;;;;5014998;28;20054;-79
2022/03/24 03:27:24;;;;;;;12.55;6.78;;;8.10;96.70;;;;;;4971141;28;20074;-80
2022/03/24 03:29:52;;;;;;;9.80;6.95;;;8.20;96.70;;;;;;4966990;28;20105;-79
2022/03/24 03:32:24;;;;;;;8.48;6.82;;;8.10;96.70;;;;;;5001538;28;20675;-80
2022/03/24 03:34:52;;;;;;;8.57;6.65;;;8.10;96.70;;;;;;4984153;28;20042;-79
2022/03/24 03:37:21;;;;;;;11.63;7.28;;;8.20;96.70;;;;;;5002248;28;20058;-79
2022/03/24 03:39:50;;;;;;;8.77;6.97;;;8.00;96.70;;;;;;4966045;28;20041;-79
2022/03/24 03:42:18;;;;;;;10.75;6.88;;;8.00;96.70;;;;;;4968320;28;20058;-79
2022/03/24 03:44:46;;;;;;;11.27;6.95;;;8.20;96.70;;;;;;4968967;28;20034;-79
2022/03/24 03:47:14;;;;;;;11.73;7.35;;;8.20;96.70;;;;;;4999356;28;20105;-80
2022/03/24 03:49:44;;;;;;;10.10;6.80;;;8.10;96.70;;;;;;4968295;28;20113;-79
2022/03/24 03:52:32;;;;;;;13.32;6.78;;;8.00;96.70;;;;;;4980385;28;20058;-80
2022/03/24 03:55:00;;;;;;;9.35;7.22;;;7.90;96.70;;;;;;4969541;28;20050;-80
2022/03/24 03:57:29;;;;;;;11.07;7.47;;;8.00;96.70;;;;;;5000489;28;20117;-80
2022/03/24 04:00:52;;;;;;;8.80;6.60;;;8.00;96.70;;;;;;4968185;28;20089;-80
2022/03/24 04:02:45;;;;;;;9.25;6.53;;;8.00;96.70;;;;;;4965906;28;20101;-80
2022/03/24 04:05:15;;;;;;;8.90;7.43;;;8.00;96.70;;;;;;4982637;28;20046;-80
2022/03/24 04:07:44;;;;;;;10.40;7.40;;;8.00;96.70;;;;;;4994111;28;20058;-79
2022/03/24 04:10:12;;;;;;;10.93;6.70;;;7.90;96.70;;;;;;4967299;28;20043;-80
2022/03/24 04:12:42;;;;;;;12.57;6.72;;;7.80;96.70;;;;;;4982227;28;20086;-79
2022/03/24 04:15:10;;;;;;;11.10;6.82;;;7.60;96.70;;;;;;5000591;28;20050;-79
2022/03/24 04:17:39;;;;;;;9.50;6.50;;;7.50;96.70;;;;;;4997857;28;20045;-79
2022/03/24 04:20:08;;;;;;;8.85;6.45;;;7.60;96.70;;;;;;4984813;28;20055;-80
2022/03/24 04:22:38;;;;;;;9.43;6.15;;;7.50;96.70;;;;;;4997980;28;20042;-79
2022/03/24 04:25:07;;;;;;;9.45;6.18;;;7.40;96.70;;;;;;4966813;28;20047;-79
2022/03/24 04:27:36;;;;;;;10.60;6.20;;;7.30;96.70;;;;;;4982496;28;20054;-79
2022/03/24 04:30:04;;;;;;;9.57;6.30;;;7.30;96.70;;;;;;4984291;28;20058;-80
2022/03/24 04:32:33;;;;;;;10.13;5.97;;;7.30;96.70;;;;;;4982018;28;20147;-80
2022/03/24 04:35:01;;;;;;;9.05;6.25;;;7.30;96.70;;;;;;5001696;28;20102;-79
2022/03/24 04:37:30;;;;;;;10.40;7.00;;;7.20;96.70;;;;;;4982753;28;20050;-79
2022/03/24 04:39:59;;;;;;;8.70;6.10;;;7.20;96.70;;;;;;4982715;28;20042;-80
2022/03/24 04:42:27;;;;;;;10.60;6.47;;;7.20;96.70;;;;;;4982715;28;20046;-80
2022/03/24 04:44:56;;;;;;;11.55;6.45;;;7.00;96.70;;;;;;4998464;28;20047;-79
2022/03/24 04:47:26;;;;;;;7.70;5.47;;;6.90;96.70;;;;;;4967012;28;20043;-80
2022/03/24 04:49:54;;;;;;;7.68;5.68;;;6.90;96.70;;;;;;4981871;28;20580;-79
2022/03/24 04:52:22;;;;;;;6.45;5.03;;;6.90;96.70;;;;;;4966602;28;20115;-79
2022/03/24 04:54:51;;;;;;;7.78;5.57;;;6.90;96.70;;;;;;4980190;28;20047;-80
2022/03/24 04:57:21;;;;;;;7.60;5.30;;;7.00;96.70;;;;;;4967401;28;20097;-79
2022/03/24 04:59:49;;;;;;;7.82;5.47;;;7.00;96.70;;;;;;4997815;28;20089;-78
2022/03/24 05:02:18;;;;;;;10.60;6.57;;;6.90;96.70;;;;;;4966301;28;20046;-79
2022/03/24 05:04:47;;;;;;;10.05;6.63;;;7.00;96.70;;;;;;4998275;28;20051;-79
2022/03/24 05:07:15;;;;;;;12.38;5.93;;;7.00;96.70;;;;;;4968337;28;20089;-79
2022/03/24 05:09:45;;;;;;;8.30;5.88;;;7.00;96.70;;;;;;4966792;28;20046;-79
2022/03/24 05:12:13;;;;;;;9.32;6.60;;;7.00;96.70;;;;;;4998632;28;20617;-76
2022/03/24 05:14:44;;;;;;;9.90;6.30;;;7.10;96.70;;;;;;4998775;28;20424;-76
2022/03/24 05:17:12;;;;;;;10.73;6.07;;;7.00;96.70;;;;;;4981877;28;20054;-75
2022/03/24 05:19:43;;;;;;;10.07;6.25;;;7.20;96.70;;;;;;4969842;28;20074;-76
2022/03/24 05:22:11;;;;;;;8.25;6.05;;;7.20;96.70;;;;;;4967316;28;20065;-77
2022/03/24 05:24:41;;;;;;;11.73;6.13;;;7.10;96.70;;;;;;4963830;28;20042;-77
2022/03/24 05:27:10;;;;;;;9.90;6.05;;;7.00;96.70;;;;;;4967721;28;20154;-77
2022/03/24 05:29:38;;;;;;;9.23;6.43;;;7.00;96.70;;;;;;4978156;28;20057;-77
2022/03/24 05:32:09;;;;;;;10.90;6.32;;;7.00;96.70;;;;;;4982863;28;20047;-76
2022/03/24 05:34:37;;;;;;;8.68;6.32;;;7.00;96.70;;;;;;4963506;28;20047;-77
2022/03/24 05:37:06;;;;;;;9.57;6.57;;;6.90;96.70;;;;;;5003488;28;20051;-77
2022/03/24 05:39:34;;;;;;;10.20;5.97;;;6.90;96.70;;;;;;4963351;28;20104;-77
2022/03/24 05:42:02;;;;;;;9.82;6.85;;;6.80;96.70;;;;;;5003888;28;20080;-77
2022/03/24 05:44:31;;;;;;;11.07;6.50;;;6.90;96.70;;;;;;4960714;28;20043;-77
2022/03/24 05:46:59;;;;;;;8.85;6.40;;;6.90;96.70;;;;;;4965959;28;20034;-77
2022/03/24 05:49:29;;;;;;;10.13;6.45;;;6.90;96.70;;;;;;5012351;28;20059;-77
2022/03/24 05:52:16;;;;;;;9.80;6.47;;;7.00;96.70;;;;;;4968147;28;20049;-77
2022/03/24 05:54:45;;;;;;;14.23;7.05;;;7.00;96.70;;;;;;4995045;28;20051;-77
2022/03/24 05:57:13;;;;;;;10.70;6.72;;;7.20;96.70;;;;;;4997829;28;20050;-77
2022/03/24 05:59:41;;;;;;;11.23;6.47;;;7.20;96.70;;;;;;5000799;28;20042;-78
2022/03/24 06:02:10;;;;;;;11.52;6.80;;;7.10;96.70;;;;;;5011381;28;20698;-78
2022/03/24 06:04:44;;;;;;;9.45;6.32;;;7.10;96.70;;;;;;4969338;28;20046;-77
2022/03/24 06:07:14;;;;;;;8.68;5.63;;;7.20;96.70;;;;;;4966273;28;20097;-76
2022/03/24 06:09:42;;;;;;;13.20;6.60;;;7.10;96.70;;;;;;5019736;28;20560;-78
2022/03/24 06:12:12;;;;;;;11.68;7.05;;;7.10;96.70;;;;;;4987313;28;20085;-79
2022/03/24 06:14:41;;;;;;;10.80;7.07;;;7.00;96.70;;;;;;5000025;28;20046;-80
2022/03/24 06:17:09;;;;;;;10.38;6.75;;;7.00;96.70;;;;;;4982365;28;20047;-77
2022/03/24 06:19:39;;;;;;;14.02;6.82;;;6.90;96.70;;;;;;4985063;28;20796;-76
2022/03/24 06:22:08;;;;;;;8.32;6.07;;;7.00;96.70;;;;;;4967206;28;20042;-77
2022/03/24 06:24:36;;;;;;;13.13;6.68;;;7.10;96.70;;;;;;4984663;28;20433;-78
2022/03/24 06:27:05;;;;;;;8.45;6.45;;;7.30;96.70;;;;;;4997313;28;20066;-77
2022/03/24 06:29:33;;;;;;;11.45;6.40;;;7.30;96.70;;;;;;5000059;28;20049;-77
2022/03/24 06:32:02;;;;;;;10.30;6.85;;;7.20;96.70;;;;;;4997714;28;20066;-77
2022/03/24 06:34:30;;;;;;;10.98;6.53;;;7.30;96.70;;;;;;4971436;28;20047;-78
2022/03/24 06:37:01;;;;;;;11.05;6.95;;;7.30;96.70;;;;;;4974772;28;20187;-79
2022/03/24 06:39:29;;;;;;;10.68;7.15;;;7.30;96.70;;;;;;4987678;28;20050;-80
2022/03/24 06:41:57;;;;;;;11.20;7.28;;;7.40;96.70;;;;;;4985865;28;20054;-81
2022/03/24 06:44:25;;;;;;;14.00;7.07;;;7.30;96.70;;;;;;4990680;28;20065;-80
2022/03/24 06:46:54;;;;;;;14.43;6.95;;;7.20;96.70;;;;;;4973908;28;20047;-79
2022/03/24 06:49:24;;;;;;;10.48;7.03;;;7.40;96.70;;;;;;5003005;28;20077;-80
2022/03/24 06:51:52;;;;;;;10.93;7.35;;;7.60;96.70;;;;;;4985539;28;20794;-80
2022/03/24 06:54:22;;;;;;;15.77;7.03;;;7.70;96.70;;;;;;4969796;28;20049;-79
2022/03/24 06:56:50;;;;;;;10.63;6.47;;;7.70;96.70;;;;;;4980247;28;20045;-80
2022/03/24 06:59:18;;;;;;;15.65;6.95;;;7.70;96.70;;;;;;5003945;28;20070;-80
2022/03/24 07:01:48;;;;;;;12.52;6.60;;;7.80;96.70;;;;;;4984832;28;20053;-80
2022/03/24 07:04:16;;;;;;;11.27;6.68;;;7.90;96.70;;;;;;5020314;28;20085;-80
2022/03/24 07:06:44;;;;;;;14.30;7.03;;;8.00;96.70;;;;;;4968371;28;20045;-80
2022/03/24 07:09:13;;;;;;;9.68;6.47;;;8.10;96.70;;;;;;4983208;28;20324;-79
2022/03/24 07:11:42;;;;;;;8.30;6.80;;;8.10;96.70;;;;;;4981071;28;20042;-80
2022/03/24 07:14:11;;;;;;;10.00;6.65;;;8.30;96.70;;;;;;4984932;28;20074;-80
2022/03/24 07:16:39;;;;;;;11.60;7.30;;;8.40;96.70;;;;;;4969996;28;20113;-80
2022/03/24 07:19:09;;;;;;;11.70;7.47;;;8.50;96.70;;;;;;4976649;28;20133;-80
2022/03/24 07:21:37;;;;;;;14.57;7.78;;;8.50;96.70;;;;;;4987470;28;20101;-80
2022/03/24 07:24:06;;;;;;;16.63;6.95;;;8.50;96.70;;;;;;4997635;28;20377;-79
2022/03/24 07:26:35;;;;;;;11.45;7.60;;;8.40;96.70;;;;;;4986097;28;20049;-80
2022/03/24 07:29:05;;;;;;;12.82;7.43;;;8.60;96.70;;;;;;4985920;28;20283;-79
2022/03/24 07:31:33;;;;;;;14.60;6.82;;;8.70;96.70;;;;;;5019248;28;20124;-79
2022/03/24 07:34:02;;;;;;;14.65;7.47;;;8.80;96.70;;;;;;4987306;28;20081;-80
2022/03/24 07:36:30;;;;;;;14.30;7.60;;;8.80;96.70;;;;;;5003079;28;20157;-79
2022/03/24 07:38:59;;;;;;;9.68;7.25;;;9.00;96.70;;;;;;4988338;28;20050;-80
2022/03/24 07:41:29;;;;;;;13.27;8.02;;;9.10;96.70;;;;;;5003296;28;20053;-80
2022/03/24 07:43:58;;;;;;;11.00;6.80;;;9.00;96.70;;;;;;4969803;28;20129;-79
2022/03/24 07:46:28;;;;;;;10.55;7.10;;;9.10;96.70;;;;;;4971879;28;20042;-79
2022/03/24 07:48:56;;;;;;;13.88;8.18;;;9.20;96.70;;;;;;4986336;28;20046;-79
2022/03/24 07:51:24;;;;;;;10.35;7.40;;;9.30;96.70;;;;;;4984485;28;20045;-79
2022/03/24 07:53:58;;;;;;;15.25;7.07;;;9.40;96.70;;;;;;4997733;28;20054;-80
2022/03/24 07:56:27;;;;;;;10.15;7.50;;;9.50;96.70;;;;;;4988121;28;20049;-79
2022/03/24 07:58:56;;;;;;;12.50;7.50;;;9.60;96.70;;;;;;4972475;28;20105;-77
2022/03/24 08:01:27;;;;;;;9.38;7.47;;;9.70;96.70;;;;;;4990004;28;20051;-78
2022/03/24 08:03:57;;;;;;;11.07;7.53;;;9.70;96.70;;;;;;4998321;28;20081;-77
2022/03/24 08:06:26;;;;;;;12.35;7.40;;;9.90;96.70;;;;;;4984694;28;20172;-76
2022/03/24 08:08:54;;;;;;;13.15;8.10;;;10.00;96.70;;;;;;4998742;28;20042;-77
2022/03/24 08:11:25;;;;;;;12.93;7.70;;;10.20;96.70;;;;;;4988245;28;20133;-77
2022/03/24 08:13:57;;;;;;;11.43;7.60;;;10.30;96.70;;;;;;4968780;28;20042;-77
2022/03/24 08:16:27;;;;;;;10.55;7.88;;;10.40;96.70;;;;;;4989613;28;20058;-77
2022/03/24 08:18:56;;;;;;;12.85;8.10;;;10.50;96.70;;;;;;4983041;28;20054;-76
2022/03/24 08:21:25;;;;;;;11.40;8.80;;;10.50;96.70;;;;;;5001217;28;20053;-76
2022/03/24 08:23:54;;;;;;;17.70;13.25;;;10.60;96.70;;;;;;4976136;28;20148;-76
2022/03/24 08:26:22;;;;;;;24.42;17.58;;;10.70;96.70;;;;;;4971148;28;20062;-77
2022/03/24 08:28:55;;;;;;;23.50;15.90;;;10.80;96.70;;;;;;4969011;28;20062;-78
2022/03/24 08:31:24;;;;;;;16.58;10.82;;;11.00;96.70;;;;;;4966981;28;20066;-77
2022/03/24 08:33:58;;;;;;;15.80;11.50;;;11.10;96.70;;;;;;5005420;28;20128;-77
2022/03/24 08:36:26;;;;;;;14.20;10.23;;;11.30;96.70;;;;;;5014761;28;20050;-77
2022/03/24 08:38:56;;;;;;;14.88;8.80;;;11.50;96.70;;;;;;4988699;28;20044;-77
2022/03/24 08:41:24;;;;;;;11.95;7.72;;;11.70;96.70;;;;;;4998805;28;20053;-78
2022/03/24 08:43:53;;;;;;;13.25;7.50;;;11.80;96.30;;;;;;4987045;28;20058;-78
2022/03/24 08:46:24;;;;;;;9.70;8.50;;;12.00;95.30;;;;;;4968051;28;20077;-77
2022/03/24 08:48:55;;;;;;;14.00;10.15;;;12.10;94.30;;;;;;4984571;28;20046;-77
2022/03/24 08:51:23;;;;;;;16.45;10.45;;;12.20;93.00;;;;;;4983862;28;20061;-77
2022/03/24 08:53:52;;;;;;;11.70;8.75;;;12.30;92.40;;;;;;4971905;28;20039;-76
2022/03/24 08:56:20;;;;;;;11.40;8.35;;;12.50;92.10;;;;;;4983290;28;20046;-77
2022/03/24 08:58:49;;;;;;;14.90;7.95;;;12.60;91.80;;;;;;5002772;28;20053;-76
2022/03/24 09:01:19;;;;;;;15.45;8.50;;;12.70;91.80;;;;;;4987299;28;20046;-77
2022/03/24 09:03:49;;;;;;;12.30;7.78;;;12.80;91.50;;;;;;4990307;28;20180;-77
2022/03/24 09:06:21;;;;;;;11.25;8.48;;;12.90;91.00;;;;;;4984514;28;20050;-76
2022/03/24 09:08:50;;;;;;;11.85;8.30;;;13.00;90.60;;;;;;4970682;28;20693;-77
2022/03/24 09:11:18;;;;;;;10.65;8.10;;;13.20;90.50;;;;;;4982617;28;20042;-77
2022/03/24 09:13:46;;;;;;;12.25;9.32;;;13.30;89.10;;;;;;4971405;28;20066;-77
2022/03/24 09:16:15;;;;;;;11.77;8.48;;;13.20;88.10;;;;;;4983124;28;20468;-76
2022/03/24 09:18:44;;;;;;;11.38;8.82;;;13.20;87.80;;;;;;5000169;28;20058;-77
2022/03/24 09:21:13;;;;;;;10.18;8.90;;;13.30;87.50;;;;;;4983913;28;20038;-77
2022/03/24 09:23:43;;;;;;;14.27;9.02;;;13.50;86.50;;;;;;4987597;28;20467;-76
2022/03/24 09:26:12;;;;;;;11.57;8.27;;;13.60;86.10;;;;;;4969445;28;20527;-77
2022/03/24 09:28:57;;;;;;;13.15;8.88;;;13.80;85.20;;;;;;4968951;28;20054;-77
2022/03/24 09:31:26;;;;;;;11.48;8.50;;;13.80;85.90;;;;;;5000974;28;20042;-77
2022/03/24 09:33:54;;;;;;;10.13;7.75;;;13.90;86.40;;;;;;4991225;28;20243;-78
2022/03/24 09:36:23;;;;;;;10.07;8.15;;;14.10;85.50;;;;;;4987207;28;20038;-77
2022/03/24 09:38:53;;;;;;;13.18;8.50;;;14.30;85.50;;;;;;5002299;28;20573;-77
2022/03/24 09:41:21;;;;;;;10.70;7.13;;;14.60;85.20;;;;;;5006454;28;20137;-77
2022/03/24 09:43:50;;;;;;;13.02;8.27;;;14.60;84.60;;;;;;4968956;28;20408;-77
2022/03/24 09:46:20;;;;;;;12.88;7.88;;;14.70;84.30;;;;;;4970216;28;20610;-77
2022/03/24 09:48:48;;;;;;;9.50;7.90;;;14.80;83.50;;;;;;4969990;28;20531;-78
2022/03/24 09:51:17;;;;;;;8.95;7.63;;;15.00;83.20;;;;;;4990722;28;20460;-78
2022/03/24 09:53:45;;;;;;;11.00;7.68;;;15.20;83.40;;;;;;4987797;28;20054;-77
2022/03/24 09:56:16;;;;;;;9.45;7.63;;;15.30;81.90;;;;;;4976280;28;20046;-77
2022/03/24 09:58:47;;;;;;;11.15;7.43;;;15.40;82.50;;;;;;4987775;28;20066;-77
2022/03/24 10:01:17;;;;;;;14.18;7.78;;;15.40;81.40;;;;;;4981119;28;20732;-77
2022/03/24 10:04:05;;;;;;;10.32;7.63;;;15.30;81.40;;;;;;4971231;28;20058;-75
2022/03/24 10:06:35;;;;;;;11.05;7.55;;;15.50;81.30;;;;;;4988190;28;20091;-76
2022/03/24 10:09:04;;;;;;;9.70;8.02;;;15.70;80.90;;;;;;4985291;28;20069;-76
2022/03/24 10:11:35;;;;;;;10.43;7.85;;;15.90;80.80;;;;;;5012817;28;20128;-76
2022/03/24 10:14:04;;;;;;;9.50;7.72;;;15.70;79.70;;;;;;5001017;28;20164;-77
2022/03/24 10:16:44;;;;;;;10.80;7.25;;;15.80;78.70;;;;;;4989226;28;20042;-78
2022/03/24 10:19:14;;;;;;;9.13;7.47;;;16.10;79.00;;;;;;4972342;28;20046;-78
2022/03/24 10:21:47;;;;;;;10.20;8.07;;;16.20;77.90;;;;;;4989805;28;20089;-78
2022/03/24 10:24:16;;;;;;;10.85;8.05;;;16.40;77.50;;;;;;5002273;28;20050;-78
2022/03/24 10:26:48;;;;;;;9.32;7.80;;;16.60;78.70;;;;;;4988375;28;20084;-79
2022/03/24 10:29:18;;;;;;;11.63;8.00;;;16.70;77.50;;;;;;5007298;28;20054;-78
2022/03/24 10:31:52;;;;;;;9.90;8.00;;;16.80;77.70;;;;;;4987066;28;20871;-78
2022/03/24 10:34:29;;;;;;;8.95;7.63;;;16.70;77.70;;;;;;4984347;28;20069;-79
2022/03/24 10:37:02;;;;;;;10.68;8.55;;;16.60;77.70;;;;;;5017304;28;20594;-79
2022/03/24 10:39:30;;;;;;;10.20;8.32;;;16.60;78.10;;;;;;4971771;28;20042;-78
2022/03/24 10:42:13;;;;;;;9.20;7.60;;;16.80;77.20;;;;;;4988150;28;20131;-79
2022/03/24 10:45:04;;;;;;;8.38;7.43;;;17.10;77.10;;;;;;4985305;28;20050;-78
2022/03/24 10:47:40;;;;;;;9.15;7.32;;;17.20;75.40;;;;;;4984825;28;20584;-79
2022/03/24 10:50:29;;;;;;;10.65;6.93;;;17.40;74.00;;;;;;4988418;28;20181;-78
2022/03/24 10:53:03;;;;;;;7.47;6.68;;;17.50;72.40;;;;;;4983969;28;20046;-78
2022/03/24 10:55:50;;;;;;;9.10;7.03;;;17.70;72.30;;;;;;4982633;28;20054;-77
2022/03/24 10:58:22;;;;;;;8.45;6.60;;;17.80;71.60;;;;;;4962468;28;20545;-78
2022/03/24 11:00:54;;;;;;;7.13;6.25;;;18.00;72.40;;;;;;4985786;28;20046;-78
2022/03/24 11:03:23;;;;;;;9.23;7.25;;;18.20;72.90;;;;;;4982893;28;20121;-78
2022/03/24 11:05:51;;;;;;;8.77;7.38;;;18.30;73.10;;;;;;4989539;28;20038;-80
2022/03/24 11:08:20;;;;;;;11.20;7.85;;;18.50;72.90;;;;;;5003057;28;20766;-81
2022/03/24 11:10:50;;;;;;;9.85;7.03;;;18.50;73.10;;;;;;4985976;28;20085;-81
2022/03/24 11:13:30;;;;;;;9.80;7.28;;;18.60;73.10;;;;;;4987670;28;20643;-81
2022/03/24 11:15:59;;;;;;;8.65;7.53;;;18.80;73.20;;;;;;4987461;28;20044;-80
2022/03/24 11:18:27;;;;;;;8.40;6.80;;;18.90;72.60;;;;;;5004540;28;20061;-80
2022/03/24 11:21:03;;;;;;;8.13;6.95;;;19.00;71.30;;;;;;4991597;28;20109;-81
2022/03/24 11:23:35;;;;;;;;;;;19.00;68.00;;;;;;5004517;28;20046;-80
2022/03/24 11:26:04;;;;;;;8.85;5.90;;;19.10;64.90;;;;;;4987965;28;19932;-80
2022/03/24 11:28:35;;;;;;;8.60;5.25;;;19.20;62.60;;;;;;4979041;28;20046;-80
2022/03/24 11:31:06;;;;;;;6.80;5.32;;;19.30;64.40;;;;;;4986566;28;20050;-80
2022/03/24 11:33:39;;;;;;;7.45;5.57;;;19.40;64.00;;;;;;4977497;28;20064;-81
2022/03/24 11:36:08;;;;;;;7.68;5.50;;;19.60;63.60;;;;;;4987031;28;20049;-81
2022/03/24 11:38:39;;;;;;;6.00;5.40;;;19.60;62.30;;;;;;5013781;28;20582;-80
2022/03/24 11:41:11;;;;;;;8.55;6.43;;;19.70;63.90;;;;;;4986099;28;20764;-80
2022/03/24 11:43:47;;;;;;;7.97;5.60;;;19.80;64.10;;;;;;4969766;28;20061;-81
2022/03/24 11:46:27;;;;;;;6.40;5.60;;;19.90;64.80;;;;;;4988886;28;20049;-81
2022/03/24 11:49:14;;;;;;;7.93;5.38;;;20.10;64.50;;;;;;5003340;28;20058;-81
2022/03/24 11:51:43;;;;;;;5.23;4.73;;;20.30;64.00;;;;;;4972175;28;20042;-79
2022/03/24 11:54:11;;;;;;;5.88;3.97;;;20.40;61.50;;;;;;4984995;28;20056;-80
2022/03/24 11:56:39;;;;;;;4.90;4.38;;;20.40;59.70;;;;;;4986695;28;20130;-80
2022/03/24 11:59:19;;;;;;;7.35;4.57;;;20.40;60.60;;;;;;4968498;28;20139;-80
2022/03/24 12:02:08;;;;;;;4.85;4.10;;;20.50;60.40;;;;;;4994895;28;20133;-80
2022/03/24 12:04:45;;;;;;;7.80;4.53;;;20.60;60.80;;;;;;4985708;28;20046;-80
2022/03/24 12:07:18;;;;;;;5.28;4.53;;;20.70;61.50;;;;;;4973099;28;20166;-80
2022/03/24 12:09:58;;;;;;;5.75;4.20;;;20.90;61.60;;;;;;5010068;28;20049;-80
2022/03/24 12:12:27;;;;;;;5.07;4.55;;;21.00;61.90;;;;;;5001503;28;20061;-80
2022/03/24 12:14:58;;;;;;;6.20;5.10;;;21.10;62.70;;;;;;4989876;28;20124;-81
2022/03/24 12:17:31;;;;;;;7.43;4.85;;;21.10;61.30;;;;;;4969087;28;20046;-80
2022/03/24 12:20:01;;;;;;;8.52;5.03;;;21.10;61.10;;;;;;5005812;28;20459;-81
2022/03/24 12:22:47;;;;;;;8.73;5.18;;;21.30;61.30;;;;;;4987692;28;20128;-80
2022/03/24 12:25:35;;;;;;;;;;;21.30;61.30;;;;;;4988240;28;20054;-80
2022/03/24 12:28:22;;;;;;;;;;;21.30;61.00;;;;;;4993608;28;20443;-80
2022/03/24 12:31:04;;;;;;;6.20;4.75;;;21.50;62.00;;;;;;5005511;28;19926;-80
2022/03/24 12:33:39;;;;;;;5.95;5.07;;;21.60;61.20;;;;;;5010687;28;20052;-81
2022/03/24 12:36:13;;;;;;;6.10;5.20;;;21.60;61.60;;;;;;4973518;28;20061;-80
2022/03/24 12:38:48;;;;;;;5.68;4.93;;;21.60;59.40;;;;;;4988169;28;20053;-81
2022/03/24 12:41:25;;;;;;;8.25;5.55;;;21.50;59.90;;;;;;4985296;28;20142;-80
2022/03/24 12:43:59;;;;;;;5.63;5.00;;;21.60;61.60;;;;;;4985394;28;20413;-81
2022/03/24 12:46:34;;;;;;;7.70;5.03;;;21.70;61.00;;;;;;4987224;28;20331;-80
2022/03/24 12:49:26;;;;;;;7.40;5.47;;;21.70;61.80;;;;;;4999427;28;20138;-79
2022/03/24 12:52:01;;;;;;;7.28;4.85;;;21.90;61.20;;;;;;5001204;28;20301;-81
2022/03/24 12:54:40;;;;;;;4.90;4.40;;;21.90;61.80;;;;;;5003712;28;20137;-80
2022/03/24 12:57:27;;;;;;;4.70;4.30;;;21.90;61.40;;;;;;4999974;28;20100;-80
2022/03/24 12:59:57;;;;;;;6.40;4.70;;;21.90;60.00;;;;;;5001228;28;20042;-81
2022/03/24 13:02:28;;;;;;;8.82;5.05;;;21.90;58.30;;;;;;4984842;28;20108;-81
2022/03/24 13:04:58;;;;;;;8.40;5.93;;;21.90;57.10;;;;;;4986103;28;20133;-80